Time,TemperatureF,DewpointF,PressureIn,WindDirection,WindDirectionDegrees,WindSpeedMPH,WindSpeedGustMPH,Humidity,HourlyPrecipIn,Conditions,Clouds,dailyrainin,SoftwareType,DateUTC
2013-09-25 00:05:00,53.9,47.0,29.93,East,91,0.0,-999.0,78,-99.99,,,0.00,weatherlink.com 1.10,2013-09-25 04:05:00,
2013-09-25 00:20:00,53.7,47.0,29.92,East,91,0.0,-999.0,79,-99.99,,,0.00,weatherlink.com 1.10,2013-09-25 04:20:00,
2013-09-25 00:35:00,53.7,48.0,29.92,East,92,0.0,-999.0,80,-99.99,,,0.00,weatherlink.com 1.10,2013-09-25 04:35:00,
2013-09-25 00:50:00,53.8,48.0,29.92,East,92,2.0,-999.0,80,-99.99,,,0.00,weatherlink.com 1.10,2013-09-25 04:50:00,
2013-09-25 01:05:00,53.7,48.0,29.92,East,92,0.0,-999.0,80,-99.99,,,0.00,weatherlink.com 1.10,2013-09-25 05:05:00,
2013-09-25 01:20:00,53.6,48.0,29.92,East,91,4.0,-999.0,81,-99.99,,,0.00,weatherlink.com 1.10,2013-09-25 05:20:00,
2013-09-25 01:35:00,53.6,48.0,29.92,East,91,0.0,-999.0,82,-99.99,,,0.00,weatherlink.com 1.10,2013-09-25 05:35:00,
2013-09-25 01:50:00,53.5,48.0,29.92,East,92,2.0,-999.0,82,-99.99,,,0.00,weatherlink.com 1.10,2013-09-25 05:50:00,
2013-09-25 02:05:00,53.3,48.0,29.92,East,93,1.0,-999.0,83,-99.99,,,0.00,weatherlink.com 1.10,2013-09-25 06:05:00,
2013-09-25 02:20:00,53.3,49.0,29.92,East,92,0.0,-999.0,84,-99.99,,,0.00,weatherlink.com 1.10,2013-09-25 06:20:00,
2013-09-25 02:35:00,52.9,48.0,29.92,East,92,0.0,-999.0,84,-99.99,,,0.00,weatherlink.com 1.10,2013-09-25 06:35:00,
2013-09-25 02:51:00,52.7,48.0,29.92,East,90,0.0,-999.0,85,-99.99,,,0.00,weatherlink.com 1.10,2013-09-25 06:51:00,
2013-09-25 03:06:00,52.3,48.0,29.92,East,90,0.0,-999.0,86,-99.99,,,0.00,weatherlink.com 1.10,2013-09-25 07:06:00,
2013-09-25 03:21:00,52.0,48.0,29.92,East,91,0.0,-999.0,87,-99.99,,,0.00,weatherlink.com 1.10,2013-09-25 07:21:00,
2013-09-25 03:36:00,51.5,48.0,29.91,East,91,4.0,-999.0,87,-99.99,,,0.00,weatherlink.com 1.10,2013-09-25 07:36:00,
2013-09-25 03:51:00,51.3,48.0,29.91,East,91,0.0,-999.0,88,-99.99,,,0.00,weatherlink.com 1.10,2013-09-25 07:51:00,
2013-09-25 04:06:00,51.2,48.0,29.91,East,91,0.0,-999.0,88,-99.99,,,0.00,weatherlink.com 1.10,2013-09-25 08:06:00,
2013-09-25 04:21:00,51.1,48.0,29.91,East,91,0.0,-999.0,89,-99.99,,,0.00,weatherlink.com 1.10,2013-09-25 08:21:00,
2013-09-25 04:36:00,50.9,48.0,29.91,East,91,0.0,-999.0,89,-99.99,,,0.00,weatherlink.com 1.10,2013-09-25 08:36:00,
2013-09-25 04:51:00,50.8,48.0,29.90,East,91,0.0,-999.0,89,-99.99,,,0.00,weatherlink.com 1.10,2013-09-25 08:51:00,
2013-09-25 05:06:00,50.7,48.0,29.91,East,91,0.0,-999.0,90,-99.99,,,0.00,weatherlink.com 1.10,2013-09-25 09:06:00,
2013-09-25 05:21:00,50.7,48.0,29.90,East,91,0.0,-999.0,90,-99.99,,,0.00,weatherlink.com 1.10,2013-09-25 09:21:00,
2013-09-25 05:36:00,50.6,48.0,29.91,East,91,0.0,-999.0,90,-99.99,,,0.00,weatherlink.com 1.10,2013-09-25 09:36:00,
2013-09-25 05:52:00,50.6,48.0,29.91,East,90,0.0,-999.0,91,-99.99,,,0.00,weatherlink.com 1.10,2013-09-25 09:52:00,
2013-09-25 06:07:00,50.5,48.0,29.91,East,90,0.0,-999.0,91,-99.99,,,0.00,weatherlink.com 1.10,2013-09-25 10:07:00,
2013-09-25 06:22:00,50.4,48.0,29.91,East,89,0.0,-999.0,91,-99.99,,,0.00,weatherlink.com 1.10,2013-09-25 10:22:00,
2013-09-25 06:37:00,50.4,48.0,29.91,East,91,4.0,-999.0,91,-99.99,,,0.00,weatherlink.com 1.10,2013-09-25 10:37:00,
2013-09-25 06:52:00,50.4,48.0,29.92,East,90,0.0,-999.0,92,-99.99,,,0.00,weatherlink.com 1.10,2013-09-25 10:52:00,
2013-09-25 07:22:00,50.3,48.0,29.92,East,90,4.0,-999.0,92,-99.99,,,0.00,weatherlink.com 1.10,2013-09-25 11:22:00,
2013-09-25 07:37:00,50.4,48.0,29.92,East,90,0.0,-999.0,92,-99.99,,,0.00,weatherlink.com 1.10,2013-09-25 11:37:00,
2013-09-25 07:52:00,50.5,48.0,29.92,East,90,2.0,-999.0,92,-99.99,,,0.00,weatherlink.com 1.10,2013-09-25 11:52:00,
2013-09-25 08:07:00,50.9,49.0,29.93,East,90,2.0,-999.0,92,-99.99,,,0.00,weatherlink.com 1.10,2013-09-25 12:07:00,
2013-09-25 08:22:00,51.8,50.0,29.93,East,90,2.0,-999.0,92,-99.99,,,0.00,weatherlink.com 1.10,2013-09-25 12:22:00,
2013-09-25 08:37:00,53.0,50.0,29.93,East,86,5.0,-999.0,90,-99.99,,,0.00,weatherlink.com 1.10,2013-09-25 12:37:00,
2013-09-25 08:52:00,53.7,50.0,29.94,East,86,5.0,-999.0,88,-99.99,,,0.00,weatherlink.com 1.10,2013-09-25 12:52:00,
2013-09-25 09:08:00,54.2,51.0,29.93,East,84,4.0,-999.0,87,-99.99,,,0.00,weatherlink.com 1.10,2013-09-25 13:08:00,
2013-09-25 09:23:00,54.3,51.0,29.93,East,80,5.0,-999.0,87,-99.99,,,0.00,weatherlink.com 1.10,2013-09-25 13:23:00,
2013-09-25 09:38:00,55.2,51.0,29.94,East,88,4.0,-999.0,86,-99.99,,,0.00,weatherlink.com 1.10,2013-09-25 13:38:00,
2013-09-25 09:53:00,55.7,52.0,29.94,East,86,5.0,-999.0,86,-99.99,,,0.00,weatherlink.com 1.10,2013-09-25 13:53:00,
2013-09-25 10:08:00,55.8,52.0,29.94,East,87,2.0,-999.0,86,-99.99,,,0.00,weatherlink.com 1.10,2013-09-25 14:08:00,
2013-09-25 10:23:00,56.5,52.0,29.95,East,87,3.0,-999.0,86,-99.99,,,0.00,weatherlink.com 1.10,2013-09-25 14:23:00,
2013-09-25 10:38:00,60.0,54.0,29.95,East,88,0.0,-999.0,80,-99.99,,,0.00,weatherlink.com 1.10,2013-09-25 14:38:00,
2013-09-25 10:53:00,62.1,53.0,29.95,ESE,110,2.0,-999.0,72,-99.99,,,0.00,weatherlink.com 1.10,2013-09-25 14:53:00,
2013-09-25 11:08:00,62.0,52.0,29.95,ESE,108,2.0,-999.0,71,-99.99,,,0.00,weatherlink.com 1.10,2013-09-25 15:08:00,
2013-09-25 11:23:00,61.7,52.0,29.94,ESE,103,6.0,-999.0,71,-99.99,,,0.00,weatherlink.com 1.10,2013-09-25 15:23:00,
2013-09-25 11:39:00,62.7,52.0,29.94,East,96,4.0,-999.0,69,-99.99,,,0.00,weatherlink.com 1.10,2013-09-25 15:39:00,
2013-09-25 11:54:00,65.0,52.0,29.94,ESE,111,1.0,-999.0,64,-99.99,,,0.01,weatherlink.com 1.10,2013-09-25 15:54:00,
2013-09-25 12:09:00,67.2,53.0,29.93,ESE,111,7.0,-999.0,60,-99.99,,,0.01,weatherlink.com 1.10,2013-09-25 16:09:00,
2013-09-25 12:24:00,67.2,53.0,29.93,East,88,3.0,-999.0,60,-99.99,,,0.01,weatherlink.com 1.10,2013-09-25 16:24:00,
2013-09-25 12:39:00,68.1,54.0,29.93,East,95,5.0,-999.0,60,-99.99,,,0.01,weatherlink.com 1.10,2013-09-25 16:39:00,
2013-09-25 12:54:00,69.7,53.0,29.92,East,95,1.0,-999.0,55,-99.99,,,0.01,weatherlink.com 1.10,2013-09-25 16:54:00,
2013-09-25 13:09:00,69.1,52.0,29.92,East,92,0.0,-999.0,54,-99.99,,,0.01,weatherlink.com 1.10,2013-09-25 17:09:00,
2013-09-25 13:24:00,69.0,49.0,29.92,ESE,104,5.0,-999.0,50,-99.99,,,0.01,weatherlink.com 1.10,2013-09-25 17:24:00,
2013-09-25 13:39:00,69.6,48.0,29.91,ENE,69,1.0,-999.0,47,-99.99,,,0.01,weatherlink.com 1.10,2013-09-25 17:39:00,
2013-09-25 13:54:00,71.2,52.0,29.91,East,96,0.0,-999.0,50,-99.99,,,0.01,weatherlink.com 1.10,2013-09-25 17:54:00,
2013-09-25 14:10:00,70.5,50.0,29.90,SE,126,5.0,-999.0,49,-99.99,,,0.01,weatherlink.com 1.10,2013-09-25 18:10:00,
2013-09-25 14:25:00,71.2,50.0,29.90,East,92,0.0,-999.0,48,-99.99,,,0.01,weatherlink.com 1.10,2013-09-25 18:25:00,
2013-09-25 14:40:00,71.5,50.0,29.89,ESE,104,0.0,-999.0,47,-99.99,,,0.01,weatherlink.com 1.10,2013-09-25 18:40:00,
2013-09-25 14:55:00,72.0,50.0,29.89,SE,135,0.0,-999.0,46,-99.99,,,0.01,weatherlink.com 1.10,2013-09-25 18:55:00,
2013-09-25 15:10:00,72.4,50.0,29.89,East,94,0.0,-999.0,45,-99.99,,,0.01,weatherlink.com 1.10,2013-09-25 19:10:00,
2013-09-25 15:25:00,72.1,50.0,29.89,East,88,0.0,-999.0,46,-99.99,,,0.01,weatherlink.com 1.10,2013-09-25 19:25:00,
2013-09-25 15:40:00,72.5,50.0,29.89,East,88,3.0,-999.0,45,-99.99,,,0.01,weatherlink.com 1.10,2013-09-25 19:40:00,
2013-09-25 15:55:00,72.8,50.0,29.89,East,86,0.0,-999.0,45,-99.99,,,0.01,weatherlink.com 1.10,2013-09-25 19:55:00,
2013-09-25 16:10:00,73.0,51.0,29.89,ENE,67,3.0,-999.0,47,-99.99,,,0.01,weatherlink.com 1.10,2013-09-25 20:10:00,
2013-09-25 16:25:00,73.1,51.0,29.88,ENE,69,0.0,-999.0,46,-99.99,,,0.01,weatherlink.com 1.10,2013-09-25 20:25:00,
2013-09-25 16:40:00,73.3,51.0,29.89,NE,36,2.0,-999.0,45,-99.99,,,0.01,weatherlink.com 1.10,2013-09-25 20:40:00,
2013-09-25 16:55:00,72.3,50.0,29.89,ENE,74,0.0,-999.0,46,-99.99,,,0.01,weatherlink.com 1.10,2013-09-25 20:55:00,
2013-09-25 17:11:00,72.4,50.0,29.89,East,90,4.0,-999.0,46,-99.99,,,0.01,weatherlink.com 1.10,2013-09-25 21:11:00,
2013-09-25 17:26:00,72.4,50.0,29.89,ENE,67,0.0,-999.0,46,-99.99,,,0.01,weatherlink.com 1.10,2013-09-25 21:26:00,
2013-09-25 17:41:00,72.2,50.0,29.89,ENE,70,3.0,-999.0,46,-99.99,,,0.01,weatherlink.com 1.10,2013-09-25 21:41:00,
2013-09-25 17:56:00,71.8,49.0,29.89,ENE,67,1.0,-999.0,45,-99.99,,,0.01,weatherlink.com 1.10,2013-09-25 21:56:00,
2013-09-25 18:11:00,71.7,50.0,29.89,ENE,62,3.0,-999.0,46,-99.99,,,0.01,weatherlink.com 1.10,2013-09-25 22:11:00,
2013-09-25 18:26:00,71.3,50.0,29.89,NE,45,2.0,-999.0,48,-99.99,,,0.01,weatherlink.com 1.10,2013-09-25 22:26:00,
2013-09-25 18:41:00,71.1,50.0,29.89,NE,51,0.0,-999.0,48,-99.99,,,0.01,weatherlink.com 1.10,2013-09-25 22:41:00,
2013-09-25 18:56:00,70.6,51.0,29.90,NE,49,0.0,-999.0,50,-99.99,,,0.01,weatherlink.com 1.10,2013-09-25 22:56:00,
2013-09-25 19:11:00,70.0,51.0,29.90,NE,50,0.0,-999.0,51,-99.99,,,0.01,weatherlink.com 1.10,2013-09-25 23:11:00,
2013-09-25 19:26:00,69.0,51.0,29.90,NE,50,0.0,-999.0,53,-99.99,,,0.01,weatherlink.com 1.10,2013-09-25 23:26:00,
2013-09-25 19:41:00,67.8,51.0,29.91,NE,49,0.0,-999.0,55,-99.99,,,0.01,weatherlink.com 1.10,2013-09-25 23:41:00,
2013-09-25 19:56:00,66.8,51.0,29.90,NE,50,0.0,-999.0,58,-99.99,,,0.01,weatherlink.com 1.10,2013-09-25 23:56:00,
2013-09-25 20:11:00,65.9,51.0,29.90,NE,50,0.0,-999.0,60,-99.99,,,0.01,weatherlink.com 1.10,2013-09-26 00:11:00,
2013-09-25 20:26:00,65.4,51.0,29.91,NE,50,0.0,-999.0,61,-99.99,,,0.01,weatherlink.com 1.10,2013-09-26 00:26:00,
2013-09-25 20:42:00,64.6,52.0,29.91,NE,50,0.0,-999.0,63,-99.99,,,0.01,weatherlink.com 1.10,2013-09-26 00:42:00,
2013-09-25 20:57:00,64.2,52.0,29.91,NE,50,0.0,-999.0,64,-99.99,,,0.01,weatherlink.com 1.10,2013-09-26 00:57:00,
2013-09-25 21:12:00,63.4,52.0,29.92,NE,50,0.0,-999.0,66,-99.99,,,0.01,weatherlink.com 1.10,2013-09-26 01:12:00,
2013-09-25 21:27:00,62.7,52.0,29.92,NE,50,0.0,-999.0,68,-99.99,,,0.01,weatherlink.com 1.10,2013-09-26 01:27:00,
2013-09-25 21:42:00,62.1,52.0,29.92,NE,51,0.0,-999.0,69,-99.99,,,0.01,weatherlink.com 1.10,2013-09-26 01:42:00,
2013-09-25 21:57:00,62.0,52.0,29.92,NE,50,0.0,-999.0,70,-99.99,,,0.01,weatherlink.com 1.10,2013-09-26 01:57:00,
2013-09-25 22:12:00,61.7,52.0,29.93,NE,50,0.0,-999.0,71,-99.99,,,0.01,weatherlink.com 1.10,2013-09-26 02:12:00,
2013-09-25 22:27:00,61.3,52.0,29.93,NE,52,0.0,-999.0,72,-99.99,,,0.01,weatherlink.com 1.10,2013-09-26 02:27:00,
2013-09-25 22:42:00,60.9,52.0,29.93,ENE,64,0.0,-999.0,73,-99.99,,,0.01,weatherlink.com 1.10,2013-09-26 02:42:00,
2013-09-25 22:57:00,60.4,52.0,29.93,ENE,65,0.0,-999.0,74,-99.99,,,0.01,weatherlink.com 1.10,2013-09-26 02:57:00,
2013-09-25 23:12:00,59.9,52.0,29.93,ENE,64,0.0,-999.0,75,-99.99,,,0.01,weatherlink.com 1.10,2013-09-26 03:12:00,
2013-09-25 23:27:00,59.3,52.0,29.93,ENE,64,0.0,-999.0,77,-99.99,,,0.01,weatherlink.com 1.10,2013-09-26 03:27:00,
2013-09-25 23:42:00,58.8,52.0,29.92,ENE,65,0.0,-999.0,78,-99.99,,,0.01,weatherlink.com 1.10,2013-09-26 03:42:00,
2013-09-25 23:57:00,58.2,52.0,29.93,ENE,65,0.0,-999.0,79,-99.99,,,0.01,weatherlink.com 1.10,2013-09-26 03:57:00,